Time;durP1;ratioP1;P1;durP2;ratioP2;P2;SDS_P1;SDS_P2;PMS_P1;PMS_P2;Temp;Humidity;BMP_temperature;BMP_pressure;BME280_temperature;BME280_humidity;BME280_pressure;Samples;Min_cycle;Max_cycle;Signal;HPM_P1;HPM_P2
2021/08/06 00:00:33;;;;;;;1.90;1.67;;;13.10;99.90;;;13.54;100.00;94450.00;2242570;56;26745;-57
2021/08/06 00:03:19;;;;;;;2.78;1.60;;;13.20;99.90;;;13.80;100.00;94449.00;2467380;54;26754;-55
2021/08/06 00:09:05;;;;;;;2.75;1.75;;;13.20;99.90;;;13.73;100.00;94428.00;2420667;54;33620;-57
2021/08/06 00:11:57;;;;;;;2.43;1.50;;;13.20;99.90;;;13.62;100.00;94452.00;2181714;56;26743;-56
2021/08/06 00:14:43;;;;;;;1.75;1.65;;;13.20;99.90;;;13.66;100.00;94438.00;2179303;56;27151;-56
2021/08/06 00:17:30;;;;;;;3.90;1.60;;;13.20;99.90;;;13.70;100.00;94446.00;2234547;56;27594;-56
2021/08/06 00:20:16;;;;;;;3.37;1.70;;;13.30;99.90;;;13.69;100.00;94442.00;2462263;55;26720;-57
2021/08/06 00:23:04;;;;;;;1.83;1.67;;;13.30;99.90;;;13.66;100.00;94441.00;2232218;56;26714;-55
2021/08/06 00:25:50;;;;;;;2.40;1.60;;;13.20;99.90;;;13.68;100.00;94439.00;2457916;55;27131;-57
2021/08/06 00:28:36;;;;;;;2.17;1.70;;;13.20;99.90;;;13.65;100.00;94434.00;2232692;56;26776;-56
2021/08/06 00:31:23;;;;;;;3.20;1.70;;;13.20;99.90;;;13.74;100.00;94435.00;2463703;55;26697;-56
2021/08/06 00:34:09;;;;;;;2.35;1.75;;;13.20;99.90;;;13.66;100.00;94430.00;2235690;56;27282;-57
2021/08/06 00:36:55;;;;;;;1.70;1.60;;;13.20;99.90;;;13.77;100.00;94426.00;2465276;55;26753;-56
2021/08/06 00:39:42;;;;;;;1.70;1.40;;;13.20;99.90;;;13.73;100.00;94426.00;2235076;56;26748;-55
2021/08/06 00:42:28;;;;;;;4.53;1.60;;;13.20;99.90;;;13.61;100.00;94424.00;2235270;56;26758;-56
2021/08/06 00:45:14;;;;;;;1.55;1.40;;;13.10;99.90;;;13.50;100.00;94423.00;2462472;55;26798;-56
2021/08/06 00:48:01;;;;;;;1.67;1.45;;;13.10;99.90;;;13.50;100.00;94428.00;2230556;56;27176;-57
2021/08/06 00:50:47;;;;;;;1.83;1.48;;;13.10;99.90;;;13.60;100.00;94420.00;2378543;55;26185;-55
2021/08/06 00:56:29;;;;;;;1.40;1.30;;;13.20;99.90;;;13.56;100.00;94406.00;2393557;55;34414;-56
2021/08/06 00:59:16;;;;;;;2.70;1.65;;;13.00;99.90;;;13.31;100.00;94414.00;2197677;56;26572;-56
2021/08/06 01:02:08;;;;;;;2.17;1.67;;;13.00;99.90;;;13.46;100.00;94420.00;2438430;54;26723;-56
2021/08/06 01:05:06;;;;;;;1.97;1.77;;;12.90;99.90;;;13.28;100.00;94417.00;2215593;54;26114;-56
2021/08/06 01:10:58;;;;;;;2.37;1.73;;;12.80;99.90;;;13.21;100.00;94399.00;2470004;53;33467;-56
2021/08/06 01:13:50;;;;;;;2.70;1.63;;;12.80;99.90;;;13.13;100.00;94411.00;2502137;53;26686;-55
2021/08/06 01:16:38;;;;;;;2.00;1.77;;;12.70;99.90;;;12.99;100.00;94409.00;2299539;54;26660;-56
2021/08/06 01:19:35;;;;;;;3.23;1.80;;;12.70;99.90;;;13.05;100.00;94410.00;2527499;53;26603;-56
2021/08/06 01:25:42;;;;;;;1.83;1.67;;;12.60;99.90;;;12.93;100.00;94394.00;2401345;54;34266;-56
2021/08/06 01:28:33;;;;;;;2.00;1.80;;;12.50;99.90;;;12.83;100.00;94415.00;2234861;54;26750;-56
2021/08/06 01:31:27;;;;;;;2.07;1.70;;;12.50;99.90;;;12.82;100.00;94419.00;2450588;54;26787;-56
2021/08/06 01:34:13;;;;;;;2.93;1.73;;;12.40;99.90;;;12.68;100.00;94420.00;2224229;54;27036;-56
2021/08/06 01:36:59;;;;;;;1.70;1.60;;;12.30;99.90;;;12.61;100.00;94411.00;2449795;54;27123;-56
2021/08/06 01:39:46;;;;;;;3.03;1.83;;;12.30;99.90;;;12.67;100.00;94410.00;2198494;54;27125;-56
2021/08/06 01:42:42;;;;;;;5.40;1.83;;;12.30;99.90;;;12.73;100.00;94408.00;2206714;54;26137;-56
2021/08/06 01:45:37;;;;;;;3.57;1.50;;;12.40;99.90;;;12.73;100.00;94399.00;2212194;54;26393;-56
2021/08/06 01:51:22;;;;;;;2.07;1.57;;;12.50;99.90;;;13.08;100.00;94386.00;2445417;55;33817;-56
2021/08/06 01:57:08;;;;;;;4.13;1.80;;;12.50;99.90;;;13.01;100.00;94378.00;2378928;54;33679;-60
2021/08/06 01:59:55;;;;;;;2.00;1.60;;;12.40;99.90;;;12.82;100.00;94396.00;2139174;57;26780;-57
2021/08/06 02:02:42;;;;;;;2.83;1.37;;;12.50;99.90;;;12.88;100.00;94395.00;2345752;57;26770;-56
2021/08/06 02:05:29;;;;;;;3.10;1.87;;;12.40;99.90;;;12.85;100.00;94395.00;2137876;57;26768;-55
2021/08/06 02:08:15;;;;;;;8.50;1.87;;;12.40;99.90;;;12.79;100.00;94391.00;2346129;57;26673;-56
2021/08/06 02:11:01;;;;;;;5.13;1.63;;;12.40;99.90;;;12.77;100.00;94390.00;2147765;56;27308;-57
2021/08/06 02:13:50;;;;;;;2.30;1.77;;;12.40;99.90;;;12.63;100.00;94380.00;2160286;56;26827;-56
2021/08/06 02:16:36;;;;;;;4.03;1.73;;;12.30;99.90;;;12.67;100.00;94387.00;2372716;56;27051;-56
2021/08/06 02:19:25;;;;;;;2.13;1.70;;;12.30;99.90;;;12.70;100.00;94389.00;2161208;56;26595;-56
2021/08/06 02:22:13;;;;;;;2.43;1.70;;;12.30;99.90;;;12.62;100.00;94387.00;2373351;56;26563;-56
2021/08/06 02:25:00;;;;;;;3.40;1.90;;;12.30;99.90;;;12.56;100.00;94388.00;2160503;56;26828;-57
2021/08/06 02:27:47;;;;;;;6.10;1.80;;;12.30;99.90;;;12.62;100.00;94387.00;2161848;56;26254;-56
2021/08/06 02:33:30;;;;;;;2.20;1.60;;;12.30;99.90;;;12.59;100.00;94363.00;2390989;55;34262;-56
2021/08/06 02:36:16;;;;;;;1.83;1.53;;;12.20;99.90;;;12.45;100.00;94369.00;2151009;56;26166;-56
2021/08/06 02:39:10;;;;;;;4.00;1.83;;;12.10;99.90;;;12.39;100.00;94371.00;2356649;56;26924;-56
2021/08/06 02:41:59;;;;;;;1.80;1.50;;;12.00;99.90;;;12.41;100.00;94376.00;2141578;57;27349;-55
2021/08/06 02:44:45;;;;;;;1.77;1.53;;;12.00;99.90;;;12.35;100.00;94370.00;2154688;56;26830;-56
2021/08/06 02:47:33;;;;;;;1.73;1.63;;;12.00;99.90;;;12.43;100.00;94369.00;2165675;56;26748;-55
2021/08/06 02:50:19;;;;;;;2.37;1.57;;;12.00;99.90;;;12.52;100.00;94367.00;2135760;57;27324;-57
2021/08/06 02:53:06;;;;;;;4.30;1.73;;;12.00;99.90;;;12.31;100.00;94360.00;2137441;57;26827;-57
2021/08/06 02:58:50;;;;;;;2.57;1.70;;;11.90;99.90;;;12.43;100.00;94359.00;2431955;53;34107;-57
2021/08/06 03:04:36;;;;;;;1.87;1.60;;;11.90;99.90;;;12.42;100.00;94349.00;2345889;55;35084;-57
2021/08/06 03:07:23;;;;;;;5.57;1.60;;;11.90;99.90;;;12.32;100.00;94370.00;2113000;57;26738;-56
2021/08/06 03:10:11;;;;;;;5.37;1.70;;;11.90;99.90;;;12.30;100.00;94367.00;2342937;57;27338;-57
2021/08/06 03:12:58;;;;;;;4.33;1.60;;;11.80;99.90;;;12.16;100.00;94374.00;2136039;60;27408;-56
2021/08/06 03:18:42;;;;;;;2.87;1.57;;;11.80;99.90;;;12.43;100.00;94359.00;2383898;55;33799;-57
2021/08/06 03:24:26;;;;;;;4.37;1.60;;;11.60;99.90;;;12.00;100.00;94358.00;2441468;53;34458;-57
2021/08/06 03:30:14;;;;;;;1.93;1.73;;;11.60;99.90;;;12.10;100.00;94364.00;2416979;54;34173;-56
2021/08/06 03:33:00;;;;;;;1.97;1.77;;;11.70;99.90;;;12.01;100.00;94388.00;2176291;57;26170;-55
2021/08/06 03:35:47;;;;;;;3.10;1.80;;;11.70;99.90;;;12.12;100.00;94386.00;2369577;57;26871;-55
2021/08/06 03:38:33;;;;;;;1.80;1.50;;;11.80;99.90;;;12.38;100.00;94398.00;2156822;58;26837;-56
2021/08/06 03:41:19;;;;;;;2.37;1.60;;;11.80;99.90;;;12.21;100.00;94384.00;2370396;56;26142;-57
2021/08/06 03:44:06;;;;;;;3.60;1.63;;;11.80;99.90;;;12.23;100.00;94390.00;2169151;56;27149;-57
2021/08/06 03:46:53;;;;;;;1.67;1.50;;;11.70;99.90;;;12.08;100.00;94392.00;2402966;56;26775;-57
2021/08/06 03:52:37;;;;;;;3.27;1.90;;;11.60;99.90;;;12.07;100.00;94377.00;2432787;54;34029;-57
2021/08/06 03:55:23;;;;;;;1.70;1.60;;;11.50;99.90;;;11.82;100.00;94398.00;2187968;55;26719;-56
2021/08/06 03:58:09;;;;;;;4.60;1.77;;;11.40;99.90;;;11.77;100.00;94400.00;2417848;55;26831;-57
2021/08/06 04:03:53;;;;;;;2.47;1.77;;;11.40;99.90;;;11.88;100.00;94388.00;2383273;55;33886;-57
2021/08/06 04:06:39;;;;;;;3.60;1.87;;;11.40;99.90;;;11.78;100.00;94418.00;2147763;56;26671;-56
2021/08/06 04:09:26;;;;;;;4.03;1.70;;;11.50;99.90;;;11.81;100.00;94409.00;2352621;56;26752;-57
2021/08/06 04:12:12;;;;;;;1.80;1.70;;;11.50;99.90;;;11.95;100.00;94407.00;2142284;56;26283;-57
2021/08/06 04:14:58;;;;;;;3.07;1.80;;;11.70;99.90;;;12.21;100.00;94403.00;2142005;57;26734;-55
2021/08/06 04:17:45;;;;;;;3.07;1.87;;;11.80;99.90;;;12.27;100.00;94405.00;2351231;56;26680;-57
2021/08/06 04:20:31;;;;;;;2.90;1.80;;;12.00;99.90;;;12.48;100.00;94409.00;2142001;56;26988;-57
2021/08/06 04:23:18;;;;;;;2.70;1.60;;;12.00;99.90;;;12.43;100.00;94406.00;2349326;56;27308;-57
2021/08/06 04:26:04;;;;;;;2.73;1.80;;;12.10;99.90;;;12.51;100.00;94406.00;2140166;57;26147;-56
2021/08/06 04:28:50;;;;;;;2.27;1.70;;;12.20;99.90;;;12.61;100.00;94406.00;2333303;56;27657;-57
2021/08/06 04:31:36;;;;;;;1.80;1.70;;;12.30;99.90;;;12.72;100.00;94408.00;2143584;57;26703;-57
2021/08/06 04:34:22;;;;;;;3.53;1.90;;;12.30;99.90;;;12.70;100.00;94395.00;2369404;56;27096;-57
2021/08/06 04:37:09;;;;;;;2.20;2.00;;;12.30;99.90;;;12.73;100.00;94396.00;2157634;56;26813;-57
2021/08/06 04:39:56;;;;;;;3.23;2.03;;;12.40;99.90;;;12.89;100.00;94406.00;2164113;56;27384;-57
2021/08/06 04:42:42;;;;;;;1.83;1.60;;;12.50;99.90;;;13.01;100.00;94399.00;2378549;56;26116;-57
2021/08/06 04:45:28;;;;;;;3.03;1.83;;;12.50;99.90;;;13.04;100.00;94394.00;2165283;56;27435;-56
2021/08/06 04:48:19;;;;;;;2.63;1.83;;;12.50;99.90;;;12.96;100.00;94397.00;2384180;55;26802;-55
2021/08/06 04:51:05;;;;;;;3.80;1.70;;;12.60;99.90;;;13.02;100.00;94388.00;2185977;56;26160;-57
2021/08/06 04:53:51;;;;;;;6.33;1.70;;;12.60;99.90;;;13.02;100.00;94383.00;2402810;55;26717;-57
2021/08/06 04:56:39;;;;;;;4.53;2.10;;;12.60;99.90;;;13.05;100.00;94379.00;2184553;56;26758;-59
2021/08/06 04:59:26;;;;;;;3.13;1.73;;;12.70;99.90;;;13.23;100.00;94382.00;2402925;55;26888;-57
2021/08/06 05:05:11;;;;;;;2.62;1.73;;;12.70;99.90;;;13.23;100.00;94356.00;2414863;55;33663;-57
2021/08/06 05:07:58;;;;;;;1.87;1.73;;;12.70;99.90;;;13.11;100.00;94376.00;2164868;56;26695;-57
2021/08/06 05:10:44;;;;;;;1.90;1.60;;;12.70;99.90;;;13.08;100.00;94379.00;2391506;56;26880;-57
2021/08/06 05:13:30;;;;;;;1.70;1.60;;;12.70;99.90;;;13.09;100.00;94385.00;2164112;56;26623;-57
2021/08/06 05:16:17;;;;;;;1.83;1.67;;;12.80;99.90;;;13.19;100.00;94384.00;2394611;55;26687;-57
2021/08/06 05:19:03;;;;;;;3.70;1.90;;;12.80;99.90;;;13.18;100.00;94385.00;2163732;56;26662;-55
2021/08/06 05:21:49;;;;;;;2.73;1.83;;;12.90;99.90;;;13.33;100.00;94387.00;2406474;55;26777;-57
2021/08/06 05:24:36;;;;;;;1.90;1.70;;;12.90;99.90;;;13.41;100.00;94384.00;2165714;56;26702;-57
2021/08/06 05:27:22;;;;;;;2.72;1.83;;;13.10;99.90;;;13.52;100.00;94386.00;2178236;56;26611;-57
2021/08/06 05:30:11;;;;;;;1.73;1.62;;;13.00;99.90;;;13.47;100.00;94384.00;2410493;55;27019;-55
2021/08/06 05:32:58;;;;;;;2.28;1.52;;;13.10;99.90;;;13.52;100.00;94376.00;2190931;56;26810;-57
2021/08/06 05:35:44;;;;;;;2.22;1.80;;;13.10;99.90;;;13.66;100.00;94374.00;2409522;55;26650;-55
2021/08/06 05:38:31;;;;;;;1.77;1.60;;;13.20;99.90;;;13.72;100.00;94373.00;2190559;55;26728;-57
2021/08/06 05:41:17;;;;;;;2.33;1.70;;;13.30;99.90;;;13.75;100.00;94375.00;2408843;55;26816;-56
2021/08/06 05:44:05;;;;;;;4.30;1.70;;;13.40;99.90;;;13.87;100.00;94369.00;2191372;55;26311;-56
2021/08/06 05:46:51;;;;;;;4.43;2.13;;;13.40;99.90;;;13.85;100.00;94371.00;2428759;55;27180;-57
2021/08/06 05:52:35;;;;;;;2.70;1.65;;;13.60;99.90;;;14.26;100.00;94350.00;2498554;53;33523;-57
2021/08/06 05:55:22;;;;;;;1.60;1.50;;;13.80;99.90;;;14.33;100.00;94369.00;2270070;54;26216;-56
2021/08/06 05:58:08;;;;;;;2.83;1.77;;;14.00;99.90;;;14.55;100.00;94362.00;2472761;52;26656;-57
2021/08/06 06:00:55;;;;;;;1.80;1.50;;;14.10;99.90;;;14.74;100.00;94361.00;2238581;54;27200;-57
2021/08/06 06:03:41;;;;;;;2.40;1.60;;;14.30;99.90;;;14.99;100.00;94356.00;2466437;54;26862;-56
2021/08/06 06:06:28;;;;;;;2.47;1.50;;;14.40;99.90;;;15.04;100.00;94353.00;2269324;53;26896;-56
2021/08/06 06:09:14;;;;;;;3.25;1.55;;;14.50;99.90;;;15.05;100.00;94347.00;2260025;53;26600;-57
2021/08/06 06:12:00;;;;;;;3.10;1.52;;;14.60;99.90;;;15.35;100.00;94340.00;2484741;53;27183;-56
2021/08/06 06:14:47;;;;;;;6.85;1.67;;;14.70;99.90;;;15.37;100.00;94340.00;2486072;53;26694;-57
2021/08/06 06:17:34;;;;;;;2.22;1.70;;;14.90;99.90;;;15.58;100.00;94339.00;2269695;53;26115;-57
2021/08/06 06:20:20;;;;;;;2.47;1.40;;;15.20;99.90;;;16.03;100.00;94335.00;2270267;53;26736;-57
2021/08/06 06:23:07;;;;;;;7.28;1.70;;;15.50;99.90;;;16.32;100.00;94341.00;2270319;53;26748;-57
2021/08/06 06:25:53;;;;;;;1.60;1.50;;;15.80;99.90;;;16.83;100.00;94343.00;2262883;53;27580;-57
2021/08/06 06:28:39;;;;;;;3.75;1.60;;;16.20;99.90;;;17.47;100.00;94337.00;2257947;53;27498;-57
2021/08/06 06:31:26;;;;;;;2.55;1.60;;;17.30;99.90;;;19.36;100.00;94328.00;2270133;53;26727;-57
2021/08/06 06:34:12;;;;;;;4.10;1.40;;;18.10;99.90;;;19.63;100.00;94341.00;2508566;53;26421;-55
2021/08/06 06:36:59;;;;;;;2.08;1.50;;;18.20;99.90;;;19.38;100.00;94345.00;2254244;53;26605;-57
2021/08/06 06:39:45;;;;;;;2.00;1.40;;;18.00;99.90;;;19.03;100.00;94343.00;2256376;53;26610;-57
2021/08/06 06:42:32;;;;;;;2.15;1.50;;;17.70;99.90;;;18.46;100.00;94345.00;2257350;53;27452;-57
2021/08/06 06:48:15;;;;;;;2.75;1.42;;;17.40;99.90;;;17.61;100.00;94347.00;2427568;54;34423;-57
2021/08/06 06:53:58;;;;;;;1.83;1.35;;;16.70;99.90;;;17.22;100.00;94353.00;2448534;54;33534;-57
2021/08/06 06:56:44;;;;;;;2.85;1.42;;;16.50;99.90;;;17.09;100.00;94356.00;2193179;55;26939;-57
2021/08/06 06:59:31;;;;;;;4.10;1.55;;;16.50;99.90;;;17.05;100.00;94360.00;2433093;54;27194;-57
2021/08/06 07:02:17;;;;;;;1.85;1.20;;;16.30;99.90;;;16.78;100.00;94355.00;2242186;54;27054;-57
2021/08/06 07:05:04;;;;;;;1.77;1.50;;;16.30;99.90;;;16.73;100.00;94354.00;2262082;54;26860;-55
2021/08/06 07:07:51;;;;;;;1.67;1.58;;;16.20;99.90;;;16.73;100.00;94370.00;2262476;54;26691;-57
2021/08/06 07:10:38;;;;;;;2.78;1.45;;;16.10;99.90;;;16.44;100.00;94382.00;2498829;54;27126;-55
2021/08/06 07:13:24;;;;;;;2.20;1.55;;;15.90;99.90;;;16.40;100.00;94388.00;2497124;54;26924;-55
2021/08/06 07:16:11;;;;;;;2.95;1.70;;;15.90;99.90;;;16.42;100.00;94397.00;2262825;54;26904;-57
2021/08/06 07:18:57;;;;;;;1.92;1.52;;;16.00;99.90;;;16.58;100.00;94407.00;2263578;54;27151;-57
2021/08/06 07:21:46;;;;;;;1.75;1.60;;;16.00;99.90;;;16.44;100.00;94426.00;2262412;54;26682;-55
2021/08/06 07:27:28;;;;;;;1.85;1.52;;;15.80;99.90;;;16.42;100.00;94431.00;2398174;55;33238;-56
2021/08/06 07:30:16;;;;;;;2.80;1.50;;;15.80;99.90;;;16.19;100.00;94432.00;2356742;56;27149;-56
2021/08/06 07:33:02;;;;;;;3.30;1.95;;;15.90;99.90;;;16.48;100.00;94443.00;2146955;58;26648;-57
2021/08/06 07:35:48;;;;;;;1.95;1.60;;;16.00;99.90;;;16.67;100.00;94453.00;2355829;57;26685;-57
2021/08/06 07:38:35;;;;;;;1.92;1.73;;;16.20;99.90;;;16.93;100.00;94454.00;2152645;57;26897;-56
2021/08/06 07:41:21;;;;;;;3.30;1.92;;;16.50;99.90;;;17.10;100.00;94447.00;2147660;57;26666;-56
2021/08/06 07:44:08;;;;;;;2.22;1.90;;;16.60;99.90;;;17.16;100.00;94450.00;2146542;57;27229;-56
2021/08/06 07:46:54;;;;;;;4.20;1.70;;;16.70;99.90;;;17.24;100.00;94452.00;2357848;57;26799;-57
2021/08/06 07:52:37;;;;;;;1.55;1.45;;;16.70;99.90;;;17.05;100.00;94455.00;2375798;55;34376;-56
2021/08/06 07:55:23;;;;;;;2.05;1.70;;;16.70;99.90;;;17.08;100.00;94458.00;2355117;55;27470;-57
2021/08/06 07:58:10;;;;;;;1.52;1.42;;;16.60;99.90;;;16.92;100.00;94461.00;2158490;56;26748;-56
2021/08/06 08:00:56;;;;;;;3.40;1.75;;;16.30;99.90;;;16.66;100.00;94460.00;2379366;56;27241;-57
2021/08/06 08:03:43;;;;;;;2.35;1.90;;;16.20;99.90;;;16.59;100.00;94462.00;2165969;57;26605;-56
2021/08/06 08:06:29;;;;;;;3.33;1.70;;;16.20;99.90;;;16.62;100.00;94461.00;2380157;56;26589;-55
2021/08/06 08:09:15;;;;;;;2.45;1.92;;;16.20;99.90;;;16.53;100.00;94465.00;2165721;56;26977;-57
2021/08/06 08:12:02;;;;;;;3.30;2.10;;;16.10;99.90;;;16.55;100.00;94470.00;2366919;56;26811;-56
2021/08/06 08:14:49;;;;;;;2.00;1.80;;;15.90;99.90;;;16.23;100.00;94473.00;2147657;57;26845;-57
2021/08/06 08:17:35;;;;;;;3.80;1.90;;;15.80;99.90;;;16.06;100.00;94472.00;2159887;58;27149;-57
2021/08/06 08:20:22;;;;;;;3.22;2.03;;;15.60;99.90;;;15.93;100.00;94474.00;2169854;57;26788;-58
2021/08/06 08:23:09;;;;;;;3.17;1.95;;;15.60;99.90;;;16.00;100.00;94486.00;2169052;57;26846;-56
2021/08/06 08:28:54;;;;;;;3.28;2.28;;;15.70;99.90;;;16.41;100.00;94474.00;2405686;55;33299;-58
2021/08/06 08:31:40;;;;;;;2.58;2.05;;;15.90;99.90;;;16.38;100.00;94491.00;2168659;56;26665;-58
2021/08/06 08:37:23;;;;;;;1.90;1.70;;;15.90;99.90;;;16.30;100.00;94478.00;2516076;52;33509;-56
2021/08/06 08:40:11;;;;;;;2.40;2.15;;;15.90;99.90;;;16.33;100.00;94485.00;2500118;53;26643;-57
2021/08/06 08:42:58;;;;;;;3.87;2.20;;;16.00;99.90;;;16.56;100.00;94489.00;2265221;53;26719;-57
2021/08/06 08:45:46;;;;;;;2.30;2.10;;;16.40;99.90;;;17.11;100.00;94483.00;2496624;53;26705;-57
2021/08/06 08:48:34;;;;;;;4.70;1.98;;;16.70;99.90;;;17.46;100.00;94486.00;2255995;54;26657;-56
2021/08/06 08:51:21;;;;;;;4.40;1.90;;;17.00;99.90;;;17.67;100.00;94478.00;2503678;53;26240;-57
2021/08/06 08:54:08;;;;;;;3.58;1.80;;;17.40;99.90;;;18.22;100.00;94475.00;2255141;53;26103;-57
2021/08/06 08:56:54;;;;;;;2.25;1.70;;;17.80;99.90;;;18.82;100.00;94469.00;2486664;53;27201;-57
2021/08/06 09:02:40;;;;;;;2.72;1.92;;;18.30;99.90;;;20.62;100.00;94464.00;2369370;54;34172;-58
2021/08/06 09:05:28;;;;;;;2.20;2.00;;;19.90;99.90;;;21.18;100.00;94462.00;2143306;56;27299;-57
2021/08/06 09:08:19;;;;;;;1.83;1.60;;;20.90;99.90;;;22.28;100.00;94462.00;2332566;56;26162;-56
2021/08/06 09:14:26;;;;;;;2.75;1.60;;;22.20;99.90;;;24.90;100.00;94440.00;2462582;53;33793;-57
2021/08/06 09:17:14;;;;;;;3.78;1.58;;;23.30;99.90;;;25.33;100.00;94438.00;2218157;55;26632;-57
2021/08/06 09:22:57;;;;;;;1.92;1.60;;;23.30;99.90;;;25.71;100.00;94447.00;2401404;55;34108;-57
2021/08/06 09:25:44;;;;;;;2.22;1.20;;;24.60;99.90;;;26.03;100.00;94460.00;2178654;57;26138;-57
2021/08/06 09:31:29;;;;;;;3.10;1.50;;;25.60;99.90;;;27.10;100.00;94447.00;2386047;55;33298;-56
2021/08/06 09:37:18;;;;;;;1.80;1.45;;;25.90;99.90;;;26.30;100.00;94457.00;2414779;55;32743;-57
2021/08/06 09:40:15;;;;;;;1.98;1.30;;;26.00;99.90;;;28.18;100.00;94452.00;2184883;56;26809;-56
2021/08/06 09:43:04;;;;;;;1.58;1.30;;;25.80;99.90;;;26.84;100.00;94463.00;2196003;55;27317;-57
2021/08/06 09:45:50;;;;;;;1.90;1.70;;;25.00;99.90;;;25.43;100.00;94454.00;2211764;54;27257;-56
2021/08/06 09:48:37;;;;;;;1.77;1.40;;;25.00;99.90;;;25.99;100.00;94460.00;2476440;54;27264;-56
2021/08/06 09:51:29;;;;;;;3.03;1.42;;;24.70;99.90;;;25.21;100.00;94459.00;2501531;54;26664;-56
2021/08/06 09:57:17;;;;;;;1.87;1.62;;;22.30;99.90;;;22.97;100.00;94451.00;2349643;55;34056;-56
2021/08/06 10:00:06;;;;;;;1.73;1.20;;;22.30;99.90;;;22.78;100.00;94455.00;2135917;57;26704;-56
2021/08/06 10:02:53;;;;;;;1.62;1.40;;;23.00;99.90;;;23.80;100.00;94457.00;2345740;56;26866;-56
2021/08/06 10:05:39;;;;;;;2.53;1.50;;;21.90;99.90;;;21.67;100.00;94466.00;2137513;56;26293;-57
2021/08/06 10:08:25;;;;;;;1.50;1.25;;;20.90;99.90;;;21.13;100.00;94460.00;2345222;55;26717;-55
2021/08/06 10:14:09;;;;;;;1.62;1.40;;;21.30;99.90;;;22.44;100.00;94443.00;2383526;55;34850;-56
2021/08/06 10:16:56;;;;;;;2.35;1.40;;;22.70;99.90;;;23.73;100.00;94444.00;2173723;56;26674;-55
2021/08/06 10:19:42;;;;;;;1.62;1.37;;;23.90;99.90;;;25.02;100.00;94437.00;2182689;56;26254;-56
2021/08/06 10:25:31;;;;;;;3.58;1.60;;;24.80;99.90;;;25.83;100.00;94437.00;2492576;53;33577;-56
2021/08/06 10:28:19;;;;;;;2.87;1.50;;;24.20;99.90;;;24.53;100.00;94443.00;2236985;55;26780;-56
2021/08/06 10:34:16;;;;;;;2.47;1.50;;;23.50;99.90;;;23.35;100.00;94429.00;2378946;55;34260;-56
2021/08/06 10:37:03;;;;;;;2.50;1.60;;;22.50;99.90;;;22.64;100.00;94439.00;2345397;56;27166;-61
2021/08/06 10:39:49;;;;;;;2.67;1.50;;;22.60;99.90;;;22.90;100.00;94429.00;2136626;57;26159;-57
2021/08/06 10:42:35;;;;;;;1.75;1.33;;;23.10;99.90;;;23.59;100.00;94432.00;2135509;57;26718;-55
2021/08/06 10:45:53;;;;;;;2.67;1.55;;;23.50;99.90;;;23.88;100.00;94422.00;2138359;57;27285;-56
2021/08/06 10:48:44;;;;;;;1.80;1.40;;;23.70;99.90;;;23.87;100.00;94420.00;2376857;56;27161;-57
2021/08/06 10:51:33;;;;;;;3.50;1.55;;;24.00;99.90;;;24.57;100.00;94414.00;2183586;56;26116;-56
2021/08/06 10:54:36;;;;;;;3.03;1.70;;;23.80;99.90;;;24.14;100.00;94417.00;2183370;56;26549;-57
2021/08/06 10:57:37;;;;;;;2.50;1.50;;;23.60;99.90;;;24.04;100.00;94410.00;2401627;56;27221;-57
2021/08/06 11:03:36;;;;;;;1.83;1.40;;;22.70;99.90;;;22.55;100.00;94407.00;2379971;55;34152;-56
2021/08/06 11:06:37;;;;;;;2.90;1.50;;;22.00;99.90;;;22.22;100.00;94409.00;2367113;56;27233;-56
2021/08/06 11:09:40;;;;;;;1.90;1.60;;;21.80;99.90;;;22.10;100.00;94411.00;2391001;56;26824;-56
2021/08/06 11:12:32;;;;;;;1.75;1.30;;;21.30;99.90;;;21.58;100.00;94433.00;2407097;56;26746;-57
2021/08/06 11:15:19;;;;;;;2.10;1.40;;;21.40;99.90;;;21.87;100.00;94416.00;2189116;56;26754;-56
2021/08/06 11:18:05;;;;;;;2.95;1.65;;;21.50;99.90;;;21.99;100.00;94426.00;2408212;55;26885;-56
2021/08/06 11:20:55;;;;;;;2.62;1.52;;;21.40;99.90;;;21.93;100.00;94421.00;2189532;56;27213;-56
2021/08/06 11:23:42;;;;;;;3.42;1.60;;;21.70;99.90;;;22.27;100.00;94411.00;2395886;55;26154;-56
2021/08/06 11:26:28;;;;;;;1.73;1.30;;;21.70;99.90;;;22.02;100.00;94414.00;2190008;57;26840;-55
2021/08/06 11:32:15;;;;;;;5.82;1.60;;;21.90;99.90;;;22.27;100.00;94409.00;2400331;55;34792;-56
2021/08/06 11:35:03;;;;;;;3.45;1.50;;;22.70;99.90;;;23.45;100.00;94410.00;2394679;56;26796;-56
2021/08/06 11:37:56;;;;;;;1.60;1.25;;;23.30;99.90;;;23.50;100.00;94406.00;2180652;56;26860;-56
2021/08/06 11:40:44;;;;;;;2.15;1.48;;;22.80;99.90;;;22.85;100.00;94405.00;2160153;56;26671;-56
2021/08/06 11:43:36;;;;;;;2.47;1.50;;;23.30;99.90;;;23.39;100.00;94403.00;2137706;58;26750;-56
2021/08/06 11:46:23;;;;;;;4.20;1.40;;;23.20;99.90;;;23.18;100.00;94393.00;2147487;56;26872;-56
2021/08/06 11:49:09;;;;;;;2.53;1.50;;;23.30;99.90;;;23.62;100.00;94388.00;2170988;56;27346;-56
2021/08/06 11:51:58;;;;;;;2.55;1.40;;;23.20;99.90;;;23.21;100.00;94398.00;2368941;56;26726;-56
2021/08/06 11:54:53;;;;;;;2.85;1.58;;;23.10;99.90;;;23.33;100.00;94396.00;2155653;57;26827;-57
2021/08/06 12:00:43;;;;;;;2.33;1.50;;;22.50;99.90;;;23.27;100.00;94386.00;2407052;55;34145;-55
2021/08/06 12:03:30;;;;;;;2.97;1.40;;;22.00;99.90;;;22.31;100.00;94391.00;2150775;56;26729;-56
2021/08/06 12:06:18;;;;;;;2.45;1.30;;;21.60;99.90;;;21.76;100.00;94398.00;2375753;56;26163;-55
2021/08/06 12:09:08;;;;;;;3.28;1.50;;;21.20;99.90;;;21.51;100.00;94397.00;2168652;56;26747;-56
2021/08/06 12:11:54;;;;;;;2.47;1.60;;;21.50;99.90;;;22.11;100.00;94396.00;2376351;56;26135;-56
2021/08/06 12:14:41;;;;;;;2.75;1.52;;;21.80;99.90;;;22.37;100.00;94392.00;2165577;57;26671;-55
2021/08/06 12:17:27;;;;;;;5.22;1.92;;;21.90;99.90;;;22.38;100.00;94389.00;2184368;56;26811;-56
2021/08/06 12:20:33;;;;;;;1.67;1.30;;;22.10;99.90;;;22.78;100.00;94391.00;2184076;56;27126;-56
2021/08/06 12:23:21;;;;;;;3.33;1.50;;;22.70;99.90;;;23.03;100.00;94388.00;2187379;56;27045;-56
2021/08/06 12:26:21;;;;;;;3.25;1.50;;;23.00;99.90;;;23.43;100.00;94385.00;2187262;56;26738;-55
2021/08/06 12:29:11;;;;;;;1.75;1.30;;;23.70;99.90;;;24.12;100.00;94384.00;2186598;56;26683;-56
2021/08/06 12:34:58;;;;;;;2.37;1.45;;;23.00;99.90;;;23.32;100.00;94386.00;2453504;53;34396;-57
2021/08/06 12:37:45;;;;;;;2.22;1.50;;;23.30;99.90;;;23.61;100.00;94387.00;2209497;56;26918;-55
2021/08/06 12:43:38;;;;;;;2.53;1.60;;;23.20;99.90;;;23.74;100.00;94370.00;2477653;54;33522;-56
2021/08/06 12:46:24;;;;;;;2.55;1.50;;;23.40;99.90;;;23.77;100.00;94378.00;2193771;56;26572;-55
2021/08/06 12:49:12;;;;;;;1.90;1.30;;;23.90;99.90;;;24.42;100.00;94369.00;2408352;55;26935;-57
2021/08/06 12:52:02;;;;;;;4.15;1.50;;;24.80;99.90;;;25.25;100.00;94374.00;2191138;55;27080;-55
2021/08/06 12:57:56;;;;;;;2.75;1.75;;;25.00;99.90;;;24.40;100.00;94358.00;2422335;54;33660;-56
2021/08/06 13:00:48;;;;;;;2.80;1.50;;;24.30;99.90;;;24.62;100.00;94365.00;2195980;55;26684;-57
2021/08/06 13:06:50;;;;;;;2.50;1.30;;;25.20;99.90;;;25.29;100.00;94353.00;2516209;53;34711;-55
2021/08/06 13:09:43;;;;;;;2.80;1.73;;;24.90;99.90;;;24.88;100.00;94367.00;2533761;52;27316;-57
2021/08/06 13:12:31;;;;;;;3.83;1.58;;;24.20;99.90;;;24.22;100.00;94368.00;2288610;54;26101;-56
2021/08/06 13:15:18;;;;;;;3.70;1.62;;;23.60;99.90;;;23.65;100.00;94361.00;2528644;53;26788;-54
2021/08/06 13:18:06;;;;;;;3.33;1.50;;;23.30;99.90;;;23.50;100.00;94366.00;2288457;54;26734;-56
2021/08/06 13:23:48;;;;;;;2.53;1.40;;;23.10;99.90;;;24.17;100.00;94374.00;2432768;54;33404;-55
2021/08/06 13:26:35;;;;;;;2.28;1.48;;;23.40;99.90;;;23.61;100.00;94370.00;2181673;56;26660;-55
2021/08/06 13:29:21;;;;;;;2.53;1.20;;;22.60;99.90;;;22.59;100.00;94366.00;2168503;56;27694;-57
2021/08/06 13:32:09;;;;;;;2.08;1.42;;;22.80;99.90;;;23.01;100.00;94355.00;2385549;55;26677;-56
2021/08/06 13:34:55;;;;;;;3.65;1.70;;;23.20;99.90;;;23.61;100.00;94352.00;2182210;56;27154;-56